Time;durP1;ratioP1;P1;durP2;ratioP2;P2;SDS_P1;SDS_P2;PMS_P1;PMS_P2;Temp;Humidity;BMP_temperature;BMP_pressure;BME280_temperature;BME280_humidity;BME280_pressure;Samples;Min_cycle;Max_cycle;Signal;HPM_P1;HPM_P2
2021/01/05 00:01:57;;;;;;;4.72;3.00;;;;;;;22.88;42.78;93963.66;5028253;28;20026;-75
2021/01/05 00:04:23;;;;;;;5.13;3.08;;;;;;;22.71;42.90;93945.00;5013914;28;20037;-74
2021/01/05 00:06:48;;;;;;;4.28;3.20;;;;;;;22.86;42.60;93971.66;5012567;28;20026;-74
2021/01/05 00:09:14;;;;;;;5.05;3.40;;;;;;;22.83;42.73;93972.69;5027867;28;20028;-73
2021/01/05 00:11:56;;;;;;;4.32;3.08;;;;;;;22.81;42.92;93972.47;5012688;28;20022;-74
2021/01/05 00:14:21;;;;;;;4.30;3.00;;;;;;;22.79;43.00;93972.28;5012074;28;20037;-75
2021/01/05 00:16:46;;;;;;;3.75;3.00;;;;;;;22.74;43.01;93965.72;5012178;28;20058;-75
2021/01/05 00:19:12;;;;;;;4.10;3.10;;;;;;;22.76;43.13;93968.63;5012000;28;20026;-74
2021/01/05 00:21:37;;;;;;;4.00;3.10;;;;;;;22.75;42.74;93971.88;5012417;28;20028;-74
2021/01/05 00:24:05;;;;;;;4.90;3.45;;;;;;;22.72;42.95;93973.69;5012368;28;20804;-74
2021/01/05 00:26:33;;;;;;;4.28;2.92;;;;;;;22.72;42.99;93981.09;5012663;28;20022;-75
2021/01/05 00:28:59;;;;;;;4.57;3.25;;;;;;;22.69;43.24;93974.00;5011296;28;20487;-75
2021/01/05 00:31:24;;;;;;;4.60;2.85;;;;;;;22.69;43.21;93984.88;5044403;28;20033;-75
2021/01/05 00:33:50;;;;;;;3.88;3.17;;;;;;;22.43;43.23;93952.34;5012567;28;20034;-75
2021/01/05 00:36:15;;;;;;;3.97;3.10;;;;;;;22.65;43.06;93985.22;5011442;28;20494;-75
2021/01/05 00:38:41;;;;;;;4.32;3.47;;;;;;;22.51;42.89;93958.56;5012326;28;20061;-74
2021/01/05 00:41:06;;;;;;;4.25;3.03;;;;;;;22.48;43.07;93957.66;5012039;28;20034;-75
2021/01/05 00:43:32;;;;;;;4.25;3.28;;;;;;;22.61;43.01;93978.66;5011086;28;20026;-74
2021/01/05 00:45:57;;;;;;;4.65;3.20;;;;;;;22.46;43.04;93967.59;5011763;28;20538;-75
2021/01/05 00:48:23;;;;;;;4.25;3.28;;;;;;;22.60;43.23;93990.78;5012006;28;20506;-75
2021/01/05 00:50:48;;;;;;;4.65;2.92;;;;;;;22.58;42.90;93996.03;5011900;28;20034;-75
2021/01/05 00:53:13;;;;;;;4.47;3.17;;;;;;;22.56;43.27;93998.56;5011876;28;20022;-74
2021/01/05 00:55:39;;;;;;;3.55;2.60;;;;;;;22.56;43.07;94004.00;5011741;28;20037;-74
2021/01/05 00:58:04;;;;;;;3.95;3.03;;;;;;;22.51;43.26;94002.09;5011356;28;20026;-75
2021/01/05 01:00:31;;;;;;;3.47;2.80;;;;;;;22.52;43.08;94004.28;5043806;28;20028;-74
2021/01/05 01:02:56;;;;;;;4.30;3.03;;;;;;;22.50;43.30;94014.25;5011932;28;20048;-73
2021/01/05 01:05:22;;;;;;;4.45;2.95;;;;;;;22.32;43.28;93987.94;5011241;28;20423;-74
2021/01/05 01:07:48;;;;;;;4.85;2.75;;;;;;;22.32;43.51;93977.06;5014902;28;20262;-73
2021/01/05 01:10:14;;;;;;;4.43;2.90;;;;;;;22.47;43.15;94018.03;5029980;28;20569;-75
2021/01/05 01:12:39;;;;;;;3.63;2.60;;;;;;;22.43;43.16;94012.19;5031046;28;20036;-73
2021/01/05 01:15:06;;;;;;;4.00;2.80;;;;;;;22.45;43.33;94020.53;5031336;28;20021;-74
2021/01/05 01:17:31;;;;;;;3.35;2.65;;;;;;;22.37;43.20;94019.72;5031696;28;20406;-74
2021/01/05 01:19:57;;;;;;;4.18;3.20;;;;;;;22.41;43.41;94014.69;5032178;28;20029;-74
2021/01/05 01:22:23;;;;;;;4.45;3.00;;;;;;;22.42;43.54;94027.78;5031755;28;20048;-74
2021/01/05 01:24:48;;;;;;;4.10;2.90;;;;;;;22.41;43.32;94031.75;5030063;28;20025;-75
2021/01/05 01:27:14;;;;;;;4.10;2.63;;;;;;;22.40;43.48;94040.44;5018323;28;20505;-74
2021/01/05 01:29:39;;;;;;;3.83;3.08;;;;;;;22.40;43.48;94048.59;5010952;28;20025;-74
2021/01/05 01:32:05;;;;;;;3.90;2.65;;;;;;;22.40;43.27;94051.31;5011330;28;20029;-74
2021/01/05 01:34:30;;;;;;;4.20;2.97;;;;;;;22.38;43.26;94051.13;5011421;28;20037;-73
2021/01/05 01:37:07;;;;;;;3.38;2.60;;;;;;;22.37;43.45;94057.81;5011311;28;20037;-74
2021/01/05 01:39:33;;;;;;;3.45;2.40;;;;;;;22.36;43.33;94056.34;5026198;28;20030;-74
2021/01/05 01:42:01;;;;;;;4.20;2.83;;;;;;;22.37;43.36;94062.53;5026622;28;20036;-74
2021/01/05 01:44:28;;;;;;;4.18;2.70;;;;;;;22.33;43.52;94062.84;5011118;28;20049;-74
2021/01/05 01:46:59;;;;;;;4.65;2.80;;;;;;;22.34;43.63;94075.16;5009721;28;20557;-74
2021/01/05 01:49:24;;;;;;;3.95;2.80;;;;;;;22.35;43.41;94071.22;5009940;28;20025;-74
2021/01/05 01:51:50;;;;;;;3.75;2.85;;;;;;;22.31;43.56;94068.06;5010700;28;20026;-74
2021/01/05 01:54:39;;;;;;;3.60;2.53;;;;;;;22.33;43.44;94072.97;5009738;28;20029;-74
2021/01/05 01:57:43;;;;;;;4.30;2.42;;;;;;;22.31;43.58;94070.78;5021577;28;20079;-74
2021/01/05 02:00:09;;;;;;;4.00;2.47;;;;;;;22.32;43.33;94080.41;5009001;28;20038;-73
2021/01/05 02:02:50;;;;;;;4.05;2.72;;;;;;;22.29;43.50;94084.19;5025676;28;20041;-74
2021/01/05 02:05:23;;;;;;;3.90;2.70;;;;;;;22.28;43.39;94088.16;5029529;28;20082;-75
2021/01/05 02:08:12;;;;;;;3.75;2.72;;;;;;;22.13;43.63;94065.44;5028980;28;20159;-73
2021/01/05 02:10:54;;;;;;;4.07;2.65;;;;;;;22.19;43.59;94080.38;5029982;28;20031;-74
2021/01/05 02:13:23;;;;;;;3.20;2.47;;;;;;;22.26;43.54;94098.81;5014429;28;20033;-75
2021/01/05 02:16:18;;;;;;;3.37;2.40;;;;;;;22.25;43.55;94094.63;5028725;28;20119;-74
2021/01/05 02:18:51;;;;;;;3.75;2.60;;;;;;;22.21;43.50;94091.50;5024798;28;20037;-75
2021/01/05 02:21:23;;;;;;;2.80;2.13;;;;;;;22.23;43.54;94091.72;5003692;28;20026;-74
2021/01/05 02:24:30;;;;;;;3.83;2.67;;;;;;;22.22;43.72;94100.41;5009756;28;20514;-74
2021/01/05 02:27:07;;;;;;;3.97;2.65;;;;;;;22.21;43.48;94099.66;5005664;28;20152;-74
2021/01/05 02:29:45;;;;;;;3.42;2.60;;;;;;;22.21;43.55;94105.13;5008869;28;20030;-74
2021/01/05 02:32:48;;;;;;;3.20;2.30;;;;;;;22.21;43.80;94105.13;5009957;28;20034;-74
2021/01/05 02:35:33;;;;;;;3.05;2.30;;;;;;;22.16;43.51;94097.03;5010018;28;20091;-74
2021/01/05 02:38:09;;;;;;;2.90;2.03;;;;;;;22.19;43.43;94102.13;5008645;28;20411;-75
2021/01/05 02:41:08;;;;;;;3.78;2.33;;;;;;;22.19;43.62;94107.56;5025299;28;20041;-74
2021/01/05 02:43:34;;;;;;;3.60;2.40;;;;;;;22.18;43.75;94106.13;5010777;28;20022;-75
2021/01/05 02:46:10;;;;;;;3.33;2.50;;;;;;;22.17;43.45;94103.94;5009726;28;20631;-75
2021/01/05 02:49:15;;;;;;;3.45;2.38;;;;;;;22.17;43.67;94112.81;5008748;28;20060;-74
2021/01/05 02:51:59;;;;;;;2.65;2.10;;;;;;;22.15;43.55;94112.63;5008239;28;20046;-75
2021/01/05 02:55:03;;;;;;;3.10;2.10;;;;;;;22.14;43.61;94115.84;5010553;28;20049;-75
2021/01/05 02:57:46;;;;;;;3.00;2.30;;;;;;;22.14;43.54;94115.84;4968446;28;20023;-74
2021/01/05 03:00:30;;;;;;;3.30;2.45;;;;;;;22.13;43.73;94108.94;4968643;28;20423;-74
2021/01/05 03:02:58;;;;;;;3.45;2.40;;;;;;;22.14;43.48;94116.56;4997560;28;20041;-74
2021/01/05 03:05:23;;;;;;;3.22;2.22;;;;;;;22.13;43.50;94120.53;5008633;28;20092;-75
2021/01/05 03:07:49;;;;;;;3.30;2.30;;;;;;;22.11;43.70;94106.75;5008813;28;20037;-74
2021/01/05 03:10:31;;;;;;;2.75;2.15;;;;;;;22.11;43.67;94119.63;5024336;28;20085;-74
2021/01/05 03:13:06;;;;;;;2.70;2.17;;;;;;;22.11;43.62;94123.06;5007533;28;20026;-75
2021/01/05 03:15:37;;;;;;;3.35;2.22;;;;;;;22.09;43.80;94120.13;5008712;28;20046;-75
2021/01/05 03:18:11;;;;;;;3.25;2.25;;;;;;;22.10;43.63;94121.59;5008172;28;20033;-75
2021/01/05 03:21:07;;;;;;;3.17;2.20;;;;;;;22.09;43.83;94120.13;5009132;28;20026;-75
2021/01/05 03:23:32;;;;;;;2.70;2.00;;;;;;;22.08;43.69;94121.38;5024798;28;20426;-75
2021/01/05 03:25:59;;;;;;;3.00;2.20;;;;;;;22.07;43.80;94119.91;5010935;28;20045;-73
2021/01/05 03:28:26;;;;;;;3.22;2.30;;;;;;;21.97;43.39;94108.00;5011176;28;20083;-74
2021/01/05 03:31:03;;;;;;;2.65;1.90;;;;;;;22.07;43.66;94117.19;5028877;28;20030;-75
2021/01/05 03:33:28;;;;;;;2.78;1.90;;;;;;;22.06;43.79;94121.19;5028972;28;20417;-74
2021/01/05 03:35:54;;;;;;;3.25;2.10;;;;;;;22.06;43.70;94132.06;5027571;28;20033;-75
2021/01/05 03:38:19;;;;;;;3.47;1.98;;;;;;;22.05;43.68;94136.03;5028519;28;20040;-75
2021/01/05 03:40:45;;;;;;;3.15;2.00;;;;;;;22.00;43.78;94128.69;5044104;28;20032;-75
2021/01/05 03:43:10;;;;;;;2.53;1.77;;;;;;;22.05;43.64;94136.03;5025357;28;20033;-74
2021/01/05 03:45:36;;;;;;;2.85;1.90;;;;;;;22.03;43.66;94138.53;5012467;28;20467;-74
2021/01/05 03:48:01;;;;;;;3.03;1.98;;;;;;;22.02;43.70;94137.06;5028432;28;20030;-75
2021/01/05 03:50:27;;;;;;;3.25;2.08;;;;;;;22.05;43.91;94146.88;5012369;28;20048;-73
2021/01/05 03:52:52;;;;;;;3.15;1.85;;;;;;;22.09;43.67;94152.75;5010382;28;20026;-75
2021/01/05 03:55:18;;;;;;;2.33;1.63;;;;;;;22.15;43.71;94150.69;5012477;28;20113;-73
2021/01/05 03:57:43;;;;;;;2.92;2.00;;;;;;;22.17;43.33;94147.44;5017411;28;20036;-74
2021/01/05 04:00:14;;;;;;;2.92;2.00;;;;;;;22.26;43.50;94155.94;5030616;28;20025;-74
2021/01/05 04:02:40;;;;;;;2.88;1.88;;;;;;;22.30;43.36;94150.94;5032231;28;20025;-74
2021/01/05 04:05:06;;;;;;;3.25;2.17;;;;;;;22.27;43.47;94135.66;5032250;28;20032;-74
2021/01/05 04:07:31;;;;;;;2.60;1.70;;;;;;;22.20;43.32;94114.50;5031903;28;20025;-74
2021/01/05 04:09:57;;;;;;;2.42;1.95;;;;;;;22.40;43.26;94149.25;5031621;28;20490;-74
2021/01/05 04:12:22;;;;;;;2.10;1.48;;;;;;;22.43;43.49;94148.19;5031528;28;20028;-73
2021/01/05 04:14:48;;;;;;;2.17;1.52;;;;;;;22.46;43.10;94149.88;5031440;28;20026;-73
2021/01/05 04:17:13;;;;;;;2.30;1.90;;;;;;;22.42;43.26;94154.91;5031530;28;20033;-74
2021/01/05 04:19:39;;;;;;;2.40;1.75;;;;;;;22.48;43.21;94158.22;5031690;28;20048;-74
2021/01/05 04:22:04;;;;;;;2.30;1.70;;;;;;;22.55;42.96;94165.78;5015577;28;20521;-74
2021/01/05 04:24:30;;;;;;;2.15;1.65;;;;;;;22.57;43.01;94158.56;5011677;28;20491;-74
2021/01/05 04:26:56;;;;;;;2.42;1.70;;;;;;;22.60;43.14;94162.94;5011646;28;20025;-73
2021/01/05 04:29:21;;;;;;;2.30;1.50;;;;;;;22.62;42.82;94173.31;5010336;28;20026;-74
2021/01/05 04:31:47;;;;;;;2.55;1.83;;;;;;;22.60;42.71;94184.72;5011866;28;20065;-73
2021/01/05 04:34:13;;;;;;;3.00;1.83;;;;;;;22.45;42.79;94157.31;5011515;28;20017;-74
2021/01/05 04:36:38;;;;;;;2.30;1.67;;;;;;;22.66;43.08;94188.06;5010468;28;20967;-74
2021/01/05 04:39:04;;;;;;;2.35;1.55;;;;;;;22.68;42.71;94195.72;5011548;28;20125;-75
2021/01/05 04:41:30;;;;;;;2.10;1.40;;;;;;;22.65;42.64;94191.31;5011326;28;20087;-73
2021/01/05 04:44:01;;;;;;;2.25;1.55;;;;;;;22.69;42.94;94197.16;5043308;28;20044;-74
2021/01/05 04:46:38;;;;;;;;;;;;;;;22.73;42.70;94200.31;5010474;28;20044;-74
2021/01/05 04:49:35;;;;;;;1.75;1.35;;;;;;;22.74;42.95;94204.50;5043240;28;19983;-74
2021/01/05 04:52:08;;;;;;;2.33;1.40;;;;;;;22.75;42.70;94214.13;5001260;28;20104;-74
2021/01/05 04:54:41;;;;;;;2.40;1.48;;;;;;;22.73;42.47;94208.47;4994374;28;20037;-74
2021/01/05 04:57:12;;;;;;;3.17;1.40;;;;;;;22.77;42.70;94215.06;5010347;28;20445;-74
2021/01/05 04:59:43;;;;;;;1.90;1.30;;;;;;;22.80;42.80;94224.19;5009913;28;20034;-74
2021/01/05 05:02:22;;;;;;;1.67;1.27;;;;;;;22.68;42.68;94215.50;5011786;28;20029;-83
2021/01/05 05:04:55;;;;;;;2.25;1.48;;;;;;;22.83;42.71;94236.75;5025600;28;20029;-73
2021/01/05 05:07:43;;;;;;;1.80;1.40;;;;;;;22.87;42.43;94245.31;5041059;28;20029;-75
2021/01/05 05:10:21;;;;;;;2.20;1.35;;;;;;;22.69;42.61;94218.94;4989824;28;20044;-77
2021/01/05 05:13:06;;;;;;;1.83;1.13;;;;;;;22.89;42.47;94244.25;5012775;28;20032;-75
2021/01/05 05:16:06;;;;;;;1.92;1.30;;;;;;;22.83;42.51;94239.47;5030292;28;20072;-74
2021/01/05 05:18:40;;;;;;;2.33;1.73;;;;;;;22.99;42.35;94258.97;5028252;28;20025;-72
2021/01/05 05:21:24;;;;;;;3.05;1.50;;;;;;;23.03;41.98;94264.84;5021817;28;20043;-75
2021/01/05 05:23:55;;;;;;;1.85;1.33;;;;;;;22.91;42.00;94233.59;5027002;28;20032;-72
2021/01/05 05:26:51;;;;;;;2.20;1.30;;;;;;;23.22;41.56;94273.59;5029026;28;21128;-72
2021/01/05 05:29:34;;;;;;;1.80;1.30;;;;;;;23.31;41.44;94277.91;5024286;28;20025;-76
2021/01/05 05:32:01;;;;;;;1.92;1.30;;;;;;;23.41;41.49;94276.94;5016793;28;20021;-77
2021/01/05 05:34:36;;;;;;;2.35;1.40;;;;;;;23.48;41.05;94285.19;5028526;28;20087;-71
2021/01/05 05:37:20;;;;;;;1.70;1.17;;;;;;;23.60;41.07;94277.50;5029159;28;20423;-73
2021/01/05 05:39:56;;;;;;;1.92;1.25;;;;;;;23.73;40.63;94285.69;5024572;28;20037;-73
2021/01/05 05:42:55;;;;;;;3.40;1.25;;;;;;;23.86;40.39;94284.38;5022497;28;20056;-71
2021/01/05 05:45:25;;;;;;;2.10;1.40;;;;;;;23.97;40.58;94300.50;5011422;28;20021;-74
2021/01/05 05:47:50;;;;;;;;;;;;;;;24.09;40.24;94296.25;5013509;28;20030;-74
2021/01/05 05:50:23;;;;;;;2.07;1.20;;;;;;;24.20;39.89;94295.25;5010016;28;20302;-74
2021/01/05 05:52:53;;;;;;;1.52;1.20;;;;;;;24.30;40.27;94299.00;5025248;28;20303;-83
2021/01/05 05:55:39;;;;;;;1.67;1.15;;;;;;;24.42;39.76;94306.41;5021326;28;20116;-73
2021/01/05 05:58:05;;;;;;;1.60;1.10;;;;;;;24.51;39.34;94314.88;5021750;28;20095;-74
2021/01/05 06:00:35;;;;;;;1.60;1.17;;;;;;;24.61;39.11;94334.25;5018149;28;20498;-74
2021/01/05 06:03:02;;;;;;;1.58;1.10;;;;;;;24.68;39.62;94322.63;5026982;28;20510;-70
2021/01/05 06:05:31;;;;;;;1.40;1.17;;;;;;;24.81;38.87;94326.03;5014515;28;20030;-74
2021/01/05 06:07:57;;;;;;;1.70;1.10;;;;;;;24.90;39.19;94339.94;5030496;28;20111;-74
2021/01/05 06:10:23;;;;;;;2.08;1.25;;;;;;;24.96;39.12;94346.00;5016567;28;20446;-68
2021/01/05 06:12:48;;;;;;;2.33;1.20;;;;;;;24.91;38.81;94322.28;5008816;28;20458;-70
2021/01/05 06:15:14;;;;;;;2.03;1.10;;;;;;;25.12;38.67;94349.59;5016973;28;20077;-66
2021/01/05 06:17:39;;;;;;;2.17;1.25;;;;;;;25.15;38.61;94349.25;5012859;28;20040;-72
2021/01/05 06:20:05;;;;;;;1.95;1.10;;;;;;;25.22;38.15;94342.38;5016179;28;20024;-67
2021/01/05 06:22:31;;;;;;;2.03;1.02;;;;;;;25.25;38.24;94352.97;5014363;28;20013;-70
2021/01/05 06:24:56;;;;;;;1.75;1.17;;;;;;;25.31;38.37;94350.09;5014425;28;20029;-68
2021/01/05 06:27:22;;;;;;;1.40;1.00;;;;;;;25.29;37.98;94358.84;5015731;28;20096;-67
2021/01/05 06:29:47;;;;;;;2.05;1.17;;;;;;;25.40;38.23;94353.06;5012998;28;20032;-68
2021/01/05 06:32:13;;;;;;;1.58;1.05;;;;;;;25.45;38.17;94350.16;5017518;28;20025;-69
2021/01/05 06:34:38;;;;;;;1.42;1.00;;;;;;;25.46;37.98;94356.38;5013078;28;20026;-70
2021/01/05 06:37:04;;;;;;;2.00;1.10;;;;;;;25.49;37.94;94349.84;5014509;28;20041;-84
2021/01/05 06:39:29;;;;;;;1.70;1.10;;;;;;;25.55;37.69;94351.13;5010141;28;20022;-71
2021/01/05 06:41:55;;;;;;;1.27;0.98;;;;;;;25.50;37.80;94340.34;5024382;28;20028;-78
2021/01/05 06:44:20;;;;;;;1.40;0.90;;;;;;;25.68;37.78;94366.72;5009815;28;20052;-76
2021/01/05 06:46:52;;;;;;;2.15;1.20;;;;;;;25.69;37.61;94368.91;5023522;28;20653;-70
2021/01/05 06:49:18;;;;;;;1.75;1.00;;;;;;;25.79;37.59;94366.41;5014075;28;20069;-73
2021/01/05 06:51:43;;;;;;;1.50;1.00;;;;;;;25.80;37.40;94374.81;5009266;28;20690;-70
2021/01/05 06:54:09;;;;;;;1.63;1.00;;;;;;;25.84;37.35;94367.00;5014450;28;20033;-68
2021/01/05 06:57:07;;;;;;;2.30;1.02;;;;;;;25.84;37.22;94369.72;5014064;28;20030;-68
2021/01/05 06:59:32;;;;;;;2.10;1.20;;;;;;;25.78;37.17;94370.41;5017070;28;20125;-74
2021/01/05 07:02:05;;;;;;;1.17;0.90;;;;;;;25.88;37.09;94370.09;5014181;28;20574;-73
2021/01/05 07:04:30;;;;;;;1.52;0.93;;;;;;;25.96;37.04;94370.13;5014070;28;20022;-74
2021/01/05 07:06:56;;;;;;;1.35;1.00;;;;;;;25.96;37.00;94376.34;5029039;28;20018;-72
2021/01/05 07:09:22;;;;;;;1.30;0.90;;;;;;;25.81;37.01;94348.94;5026542;28;20049;-74
2021/01/05 07:11:47;;;;;;;1.08;0.82;;;;;;;25.90;37.02;94359.38;5024010;28;20025;-73
2021/01/05 07:14:14;;;;;;;1.05;0.90;;;;;;;26.09;37.00;94389.88;5022306;28;20131;-74
2021/01/05 07:16:39;;;;;;;2.10;0.98;;;;;;;26.13;37.08;94390.28;5041819;28;20132;-69
2021/01/05 07:19:04;;;;;;;2.42;1.15;;;;;;;26.16;36.77;94405.59;5020369;28;20022;-73
2021/01/05 07:21:30;;;;;;;1.50;1.00;;;;;;;26.18;36.84;94403.06;5026186;28;20034;-74
2021/01/05 07:23:56;;;;;;;1.90;1.00;;;;;;;26.24;37.04;94403.63;5027233;28;20013;-74
2021/01/05 07:26:21;;;;;;;1.58;1.00;;;;;;;26.26;37.24;94406.53;5026488;28;20026;-76
2021/01/05 07:28:47;;;;;;;1.65;1.15;;;;;;;26.27;37.33;94399.81;5029195;28;20136;-74
2021/01/05 07:31:12;;;;;;;1.63;0.90;;;;;;;26.27;37.72;94411.50;5019909;28;20403;-75
2021/01/05 07:33:38;;;;;;;1.48;0.90;;;;;;;26.25;38.04;94410.56;5017877;28;20025;-76
2021/01/05 07:36:05;;;;;;;2.17;1.00;;;;;;;26.22;38.24;94403.44;5044617;28;20035;-75
2021/01/05 07:38:31;;;;;;;2.13;1.20;;;;;;;26.26;38.09;94411.28;5030527;28;20029;-75
2021/01/05 07:40:56;;;;;;;1.40;0.98;;;;;;;26.08;38.48;94393.88;5023629;28;20494;-75
2021/01/05 07:43:22;;;;;;;1.73;1.05;;;;;;;26.24;38.27;94409.09;5024465;28;20111;-73
2021/01/05 07:45:47;;;;;;;1.20;0.90;;;;;;;26.28;38.74;94417.72;5028756;28;20042;-76
2021/01/05 07:48:13;;;;;;;1.65;0.95;;;;;;;26.27;38.67;94413.50;5016973;28;20123;-76
2021/01/05 07:50:39;;;;;;;1.50;0.80;;;;;;;26.30;38.96;94423.38;5016286;28;20053;-75
2021/01/05 07:53:04;;;;;;;1.70;1.10;;;;;;;26.23;39.19;94404.88;5019759;28;20026;-76
2021/01/05 07:55:31;;;;;;;2.08;1.10;;;;;;;26.33;39.05;94425.03;5021378;28;20514;-75
2021/01/05 07:57:57;;;;;;;2.67;1.00;;;;;;;26.38;39.15;94426.88;5021403;28;20017;-75
2021/01/05 08:00:27;;;;;;;1.50;1.00;;;;;;;26.37;39.53;94430.91;5017490;28;20026;-76
2021/01/05 08:02:54;;;;;;;1.52;1.00;;;;;;;26.40;39.79;94440.78;5032842;28;20034;-76
2021/01/05 08:05:20;;;;;;;2.00;1.10;;;;;;;26.41;39.72;94442.22;5018043;28;20033;-75
2021/01/05 08:07:46;;;;;;;3.17;1.30;;;;;;;26.43;40.23;94447.91;5016386;28;20081;-74
2021/01/05 08:10:16;;;;;;;2.97;1.50;;;;;;;26.38;40.71;94429.59;5021348;28;20025;-71
2021/01/05 08:12:42;;;;;;;2.78;1.35;;;;;;;26.47;40.27;94440.03;5022894;28;20476;-72
2021/01/05 08:15:12;;;;;;;2.72;1.10;;;;;;;26.38;40.49;94432.34;5019188;28;20030;-73
2021/01/05 08:17:37;;;;;;;3.45;1.67;;;;;;;26.50;40.68;94444.44;5020927;28;20025;-73
2021/01/05 08:20:04;;;;;;;2.10;0.95;;;;;;;26.47;40.53;94445.53;5020302;28;20493;-72
2021/01/05 08:22:29;;;;;;;2.63;1.20;;;;;;;26.47;40.75;94468.19;5016209;28;20084;-71
2021/01/05 08:24:55;;;;;;;2.00;1.00;;;;;;;26.44;40.78;94452.09;5026899;28;20026;-77
2021/01/05 08:27:23;;;;;;;2.33;1.13;;;;;;;26.46;40.64;94463.25;5018666;28;20038;-73
2021/01/05 08:29:49;;;;;;;3.08;1.25;;;;;;;26.49;40.73;94462.16;5021365;28;20033;-74
2021/01/05 08:32:14;;;;;;;2.60;1.30;;;;;;;26.51;40.34;94467.81;5023855;28;20041;-75
2021/01/05 08:34:40;;;;;;;2.00;0.90;;;;;;;26.46;40.28;94450.28;5019239;28;20027;-78
2021/01/05 08:37:05;;;;;;;2.42;0.98;;;;;;;26.50;40.12;94460.88;5027639;28;20059;-77
2021/01/05 08:39:31;;;;;;;1.55;1.00;;;;;;;26.52;40.14;94456.31;5025236;28;20076;-72
2021/01/05 08:41:57;;;;;;;1.88;1.00;;;;;;;26.52;40.49;94459.06;5010733;28;20030;-72
2021/01/05 08:44:22;;;;;;;2.40;1.20;;;;;;;26.53;40.22;94455.06;5010748;28;20529;-74
2021/01/05 08:46:48;;;;;;;2.00;1.10;;;;;;;26.50;40.20;94460.88;5019496;28;20025;-75
2021/01/05 08:49:13;;;;;;;2.30;1.00;;;;;;;26.49;40.36;94448.47;5016726;28;20040;-74
2021/01/05 08:51:39;;;;;;;1.73;0.98;;;;;;;26.59;40.18;94463.09;5011161;28;20037;-74
2021/01/05 08:54:05;;;;;;;1.85;1.00;;;;;;;26.62;39.85;94473.72;5023261;28;20032;-74
2021/01/05 08:56:30;;;;;;;1.27;0.70;;;;;;;26.53;39.51;94454.31;5024319;28;20489;-74
2021/01/05 08:58:56;;;;;;;1.73;0.82;;;;;;;26.67;38.77;94467.31;5018213;28;20034;-72
2021/01/05 09:01:22;;;;;;;1.95;1.00;;;;;;;26.70;39.06;94473.72;5015963;28;20062;-72
2021/01/05 09:03:47;;;;;;;2.38;1.40;;;;;;;26.69;38.50;94470.25;5017654;28;20041;-74
2021/01/05 09:06:13;;;;;;;1.42;0.98;;;;;;;26.52;38.64;94447.38;5010219;28;20030;-74
2021/01/05 09:08:39;;;;;;;1.30;0.70;;;;;;;26.71;38.40;94464.97;5016711;28;20036;-72
2021/01/05 09:11:06;;;;;;;2.28;0.98;;;;;;;26.70;38.33;94474.44;4999531;28;20033;-73
2021/01/05 09:13:32;;;;;;;1.75;0.90;;;;;;;26.74;38.08;94479.56;5009601;28;20021;-73
2021/01/05 09:15:57;;;;;;;1.98;1.17;;;;;;;26.77;38.11;94479.94;5010030;28;20139;-72
2021/01/05 09:18:23;;;;;;;1.80;0.98;;;;;;;26.81;37.79;94472.09;5025002;28;20026;-72
2021/01/05 09:20:52;;;;;;;2.83;1.35;;;;;;;26.78;37.60;94475.91;5023300;28;20139;-74
2021/01/05 09:23:22;;;;;;;1.50;0.95;;;;;;;26.64;37.21;94437.56;5020076;28;20277;-75
2021/01/05 09:25:51;;;;;;;1.30;0.80;;;;;;;26.75;37.44;94453.63;5028828;28;20021;-75
2021/01/05 09:28:17;;;;;;;1.33;0.80;;;;;;;26.86;37.31;94471.19;5028145;28;20040;-74
2021/01/05 09:30:50;;;;;;;1.63;0.95;;;;;;;26.84;37.53;94470.28;5023172;28;20025;-74
2021/01/05 09:33:17;;;;;;;2.28;1.00;;;;;;;26.85;39.20;94464.25;5019936;28;20025;-73
2021/01/05 09:35:42;;;;;;;1.67;0.90;;;;;;;26.86;39.57;94482.16;5022218;28;20033;-77
2021/01/05 09:38:08;;;;;;;1.85;1.08;;;;;;;26.89;39.35;94486.59;5009489;28;20116;-69
2021/01/05 09:40:40;;;;;;;2.20;0.90;;;;;;;26.89;39.42;94486.59;5012755;28;20040;-74
2021/01/05 09:43:07;;;;;;;1.67;0.95;;;;;;;26.92;39.25;94476.53;5026482;28;20025;-75
2021/01/05 09:45:32;;;;;;;2.08;1.00;;;;;;;26.77;38.92;94457.31;5028049;28;20124;-75
2021/01/05 09:48:10;;;;;;;1.30;0.80;;;;;;;26.72;39.62;94462.94;5025977;28;20112;-75
2021/01/05 09:50:38;;;;;;;2.33;0.93;;;;;;;26.78;39.61;94481.41;5025751;28;20029;-75
2021/01/05 09:53:03;;;;;;;1.23;0.85;;;;;;;26.81;39.40;94474.81;5042326;28;20026;-76
2021/01/05 09:55:29;;;;;;;2.92;1.08;;;;;;;26.80;39.77;94473.38;5010321;28;20565;-70
2021/01/05 09:57:54;;;;;;;2.60;0.93;;;;;;;26.83;39.48;94466.81;5011161;28;20498;-74
2021/01/05 10:00:21;;;;;;;1.48;0.98;;;;;;;26.85;39.61;94471.75;5010133;28;20022;-75
2021/01/05 10:02:46;;;;;;;1.50;0.98;;;;;;;26.87;39.68;94467.16;5010568;28;20061;-75
2021/01/05 10:05:12;;;;;;;2.30;1.10;;;;;;;26.90;39.48;94477.06;5009831;28;20506;-75
2021/01/05 10:07:38;;;;;;;1.67;1.10;;;;;;;26.89;39.70;94472.88;5009855;28;20427;-74
2021/01/05 10:10:04;;;;;;;1.40;0.90;;;;;;;26.89;39.81;94464.66;5010045;28;20022;-75
2021/01/05 10:12:30;;;;;;;2.28;1.00;;;;;;;26.86;39.86;94465.72;5009027;28;20037;-75
2021/01/05 10:14:55;;;;;;;2.00;0.80;;;;;;;26.89;39.49;94452.94;5009816;28;20029;-74
2021/01/05 10:17:21;;;;;;;1.85;0.98;;;;;;;26.72;39.80;94432.81;5017020;28;20091;-75
2021/01/05 10:19:46;;;;;;;2.58;0.90;;;;;;;26.83;39.83;94455.84;5014793;28;20041;-74
2021/01/05 10:22:13;;;;;;;2.22;1.00;;;;;;;26.88;39.64;94457.69;5010303;28;20049;-74
2021/01/05 10:24:38;;;;;;;2.53;0.95;;;;;;;26.88;39.84;94460.41;5010065;28;20424;-75
2021/01/05 10:27:04;;;;;;;4.13;1.20;;;;;;;26.94;39.40;94461.00;5009822;28;20506;-73
2021/01/05 10:29:29;;;;;;;1.70;1.00;;;;;;;26.87;39.63;94439.03;5020159;28;20025;-74
2021/01/05 10:31:55;;;;;;;1.95;0.80;;;;;;;26.97;39.24;94459.91;5014835;28;20148;-74
2021/01/05 10:34:22;;;;;;;2.20;0.95;;;;;;;26.96;39.26;94474.88;5009483;28;20025;-74
2021/01/05 10:36:58;;;;;;;3.05;1.35;;;;;;;26.97;39.63;94459.91;5010457;28;20048;-73
2021/01/05 10:39:24;;;;;;;1.65;0.90;;;;;;;26.99;39.56;94451.88;5009828;28;20041;-74
2021/01/05 10:41:50;;;;;;;1.52;0.95;;;;;;;27.02;39.40;94459.00;5010080;28;20037;-74
2021/01/05 10:44:16;;;;;;;2.55;1.08;;;;;;;26.93;39.22;94465.00;5021791;28;20029;-73
2021/01/05 10:46:42;;;;;;;2.35;1.00;;;;;;;26.86;39.20;94441.06;5016425;28;20056;-74
2021/01/05 10:49:07;;;;;;;2.33;0.90;;;;;;;27.00;39.15;94464.31;5024445;28;20065;-74
2021/01/05 10:51:33;;;;;;;2.03;0.82;;;;;;;27.04;39.01;94459.22;5009292;28;20025;-75
2021/01/05 10:53:58;;;;;;;1.08;0.77;;;;;;;27.06;39.28;94467.59;5009220;28;20530;-74
2021/01/05 10:56:24;;;;;;;1.75;0.70;;;;;;;27.08;39.16;94470.53;5009111;28;20554;-74
2021/01/05 10:58:49;;;;;;;27.15;3.35;;;;;;;26.93;38.93;94448.56;5009496;28;20029;-74
2021/01/05 11:01:15;;;;;;;12.48;1.70;;;;;;;27.05;39.89;94460.66;5021413;28;20029;-75
2021/01/05 11:03:41;;;;;;;6.65;1.15;;;;;;;27.04;40.17;94461.19;5036266;28;20025;-74
2021/01/05 11:06:06;;;;;;;3.80;1.25;;;;;;;26.88;39.89;94441.25;5018811;28;20131;-77
2021/01/05 11:08:32;;;;;;;4.18;1.00;;;;;;;26.90;39.67;94427.75;5021168;28;20022;-80
2021/01/05 11:11:00;;;;;;;3.45;1.00;;;;;;;27.05;39.60;94449.69;5039951;28;20025;-80
2021/01/05 11:13:26;;;;;;;3.90;1.10;;;;;;;27.03;39.40;94451.53;5036217;28;20030;-77
2021/01/05 11:15:51;;;;;;;3.75;1.08;;;;;;;27.00;39.57;94458.81;5022822;28;20111;-73
2021/01/05 11:18:17;;;;;;;6.00;1.10;;;;;;;27.05;39.66;94460.66;5029622;28;20091;-75
2021/01/05 11:20:43;;;;;;;8.98;1.30;;;;;;;26.91;39.65;94451.13;5031362;28;20017;-82
2021/01/05 11:23:09;;;;;;;4.38;0.98;;;;;;;27.00;39.66;94469.78;5020308;28;20034;-74
2021/01/05 11:25:35;;;;;;;4.63;1.00;;;;;;;26.97;39.68;94476.34;5020160;28;20021;-72
2021/01/05 11:28:04;;;;;;;2.85;1.05;;;;;;;27.00;39.51;94467.03;5020116;28;20026;-72
2021/01/05 11:30:29;;;;;;;4.13;1.27;;;;;;;27.08;39.55;94453.34;5024381;28;20024;-73
2021/01/05 11:32:55;;;;;;;5.85;1.10;;;;;;;27.04;39.73;94459.22;5022123;28;20026;-75
2021/01/05 11:35:21;;;;;;;7.00;1.13;;;;;;;27.03;39.67;94468.69;5017056;28;20104;-74
2021/01/05 11:37:46;;;;;;;9.02;2.47;;;;;;;27.06;39.77;94473.09;5019122;28;20411;-75
2021/01/05 11:40:12;;;;;;;4.35;1.17;;;;;;;27.09;40.24;94472.00;5012754;28;20113;-72
2021/01/05 11:42:37;;;;;;;5.30;1.10;;;;;;;27.09;40.74;94468.53;5023618;28;20049;-73
2021/01/05 11:45:05;;;;;;;4.30;1.10;;;;;;;27.10;40.28;94457.03;5031031;28;20041;-79